createdAt,value
2017-09-26T00:02:22.546Z,76.20
2017-09-26T00:04:48.779Z,75.80
2017-09-26T00:07:15.347Z,75.80
2017-09-26T00:09:41.588Z,75.60
2017-09-26T00:12:08.571Z,76.60
2017-09-26T00:14:49.690Z,76.60
2017-09-26T00:17:15.939Z,76.20
2017-09-26T00:19:42.165Z,75.70
2017-09-26T00:22:09.546Z,75.80
2017-09-26T00:24:35.805Z,75.70
2017-09-26T00:27:02.126Z,75.80
2017-09-26T00:29:28.740Z,76.00
2017-09-26T00:31:54.962Z,76.10
2017-09-26T00:34:22.055Z,76.10
2017-09-26T00:36:48.710Z,76.00
2017-09-26T00:39:15.003Z,76.20
2017-09-26T00:41:41.271Z,76.20
2017-09-26T00:44:07.932Z,76.20
2017-09-26T00:46:34.830Z,75.90
2017-09-26T00:49:00.994Z,75.80
2017-09-26T00:51:27.561Z,75.50
2017-09-26T00:53:54.547Z,75.90
2017-09-26T00:56:20.808Z,75.80
2017-09-26T00:58:47.386Z,75.90
2017-09-26T01:01:30.287Z,76.00
2017-09-26T01:04:00.615Z,76.10
2017-09-26T01:06:42.513Z,76.00
2017-09-26T01:09:09.196Z,75.90
2017-09-26T01:11:35.394Z,75.60
2017-09-26T01:14:01.563Z,75.50
2017-09-26T01:16:28.310Z,75.40
2017-09-26T01:18:54.546Z,76.10
2017-09-26T01:21:21.615Z,75.40
2017-09-26T01:23:48.217Z,75.40
2017-09-26T01:26:14.462Z,75.00
2017-09-26T01:28:40.639Z,75.60
2017-09-26T01:31:07.348Z,75.10
2017-09-26T01:33:33.613Z,75.70
2017-09-26T01:35:59.910Z,75.40
2017-09-26T01:38:26.657Z,75.40
2017-09-26T01:41:05.099Z,75.60
2017-09-26T01:43:31.774Z,75.60
2017-09-26T01:45:57.989Z,75.00
2017-09-26T01:48:24.330Z,75.30
2017-09-26T01:50:51.006Z,75.80
2017-09-26T01:53:17.250Z,75.80
2017-09-26T01:55:43.498Z,75.50
2017-09-26T01:58:10.173Z,75.10
2017-09-26T02:00:36.412Z,75.30
2017-09-26T02:03:03.377Z,75.80
2017-09-26T02:05:29.975Z,75.80
2017-09-26T02:07:56.233Z,75.50
2017-09-26T02:10:23.179Z,75.30
2017-09-26T02:12:50.504Z,75.00
2017-09-26T02:15:16.716Z,75.00
2017-09-26T02:17:42.975Z,76.00
2017-09-26T02:20:10.284Z,75.10
2017-09-26T02:22:36.561Z,75.10
2017-09-26T02:25:03.546Z,74.20
2017-09-26T02:27:30.193Z,74.20
2017-09-26T02:29:56.462Z,74.10
2017-09-26T02:32:22.710Z,74.50
2017-09-26T02:34:50.082Z,74.40
2017-09-26T02:37:16.343Z,74.30
2017-09-26T02:39:42.548Z,74.90
2017-09-26T02:42:09.180Z,75.00
2017-09-26T02:44:35.400Z,75.30
2017-09-26T02:47:02.387Z,76.00
2017-09-26T02:49:28.947Z,75.30
2017-09-26T02:51:55.219Z,75.10
2017-09-26T02:54:21.489Z,75.10
2017-09-26T02:56:48.185Z,75.10
2017-09-26T02:59:14.440Z,75.50
2017-09-26T03:01:40.670Z,75.40
2017-09-26T03:04:07.377Z,75.50
2017-09-26T03:06:33.619Z,75.80
2017-09-26T03:08:59.822Z,75.70
2017-09-26T03:11:27.185Z,75.90
2017-09-26T03:13:53.449Z,75.80
2017-09-26T03:16:19.704Z,75.50
2017-09-26T03:18:46.210Z,75.70
2017-09-26T03:21:12.528Z,75.70
2017-09-26T03:23:38.803Z,75.50
2017-09-26T03:26:05.489Z,74.60
2017-09-26T03:28:31.742Z,74.90
2017-09-26T03:30:58.069Z,75.60
2017-09-26T03:33:24.373Z,75.80
2017-09-26T03:35:50.647Z,75.30
2017-09-26T03:38:16.967Z,76.10
2017-09-26T03:40:43.254Z,75.90
2017-09-26T03:43:10.219Z,75.40
2017-09-26T03:45:36.519Z,75.30
2017-09-26T03:48:03.530Z,74.80
2017-09-26T03:50:29.738Z,74.80
2017-09-26T03:52:55.979Z,75.10
2017-09-26T03:55:22.245Z,75.40
2017-09-26T03:57:48.514Z,75.80
2017-09-26T04:00:14.866Z,75.50
2017-09-26T04:02:41.481Z,75.90
2017-09-26T04:05:07.770Z,75.60
2017-09-26T04:07:34.813Z,75.80
2017-09-26T04:10:01.089Z,75.70
2017-09-26T04:12:27.386Z,75.30
2017-09-26T04:14:54.427Z,75.90
2017-09-26T04:17:21.438Z,76.20
2017-09-26T04:19:47.699Z,75.40
2017-09-26T04:22:13.986Z,75.50
2017-09-26T04:24:40.269Z,75.10
2017-09-26T04:27:07.326Z,76.00
2017-09-26T04:29:34.362Z,75.80
2017-09-26T04:32:01.029Z,75.80
2017-09-26T04:34:27.300Z,76.00
2017-09-26T04:36:53.616Z,75.70
2017-09-26T04:39:19.890Z,76.00
2017-09-26T04:41:46.087Z,76.20
2017-09-26T04:44:12.313Z,75.70
2017-09-26T04:46:38.553Z,75.90
2017-09-26T04:49:04.783Z,75.50
2017-09-26T04:51:30.980Z,75.40
2017-09-26T04:53:57.219Z,75.40
2017-09-26T04:56:23.484Z,75.20
2017-09-26T04:58:50.528Z,75.10
2017-09-26T05:01:17.549Z,75.10
2017-09-26T05:03:43.850Z,75.00
2017-09-26T05:06:10.105Z,74.20
2017-09-26T05:08:36.407Z,74.10
2017-09-26T05:11:02.697Z,74.90
2017-09-26T05:13:29.639Z,75.10
2017-09-26T05:15:55.918Z,75.00
2017-09-26T05:18:22.277Z,75.40
2017-09-26T05:20:48.538Z,74.80
2017-09-26T05:23:15.923Z,74.10
2017-09-26T05:25:42.171Z,74.00
2017-09-26T05:28:08.358Z,75.30
2017-09-26T05:30:35.362Z,75.30
2017-09-26T05:33:01.649Z,75.30
2017-09-26T05:35:27.880Z,75.30
2017-09-26T05:37:54.118Z,74.80
2017-09-26T05:40:20.406Z,74.30
2017-09-26T05:42:46.676Z,74.90
2017-09-26T05:45:12.983Z,75.30
2017-09-26T05:47:39.250Z,75.60
2017-09-26T05:50:05.491Z,75.90
2017-09-26T05:52:31.731Z,76.10
2017-09-26T05:54:57.982Z,75.50
2017-09-26T05:57:25.956Z,75.60
2017-09-26T05:59:53.481Z,76.20
2017-09-26T06:02:20.451Z,74.90
2017-09-26T06:04:46.680Z,74.90
2017-09-26T06:07:13.348Z,76.10
2017-09-26T06:09:39.593Z,76.00
2017-09-26T06:12:05.842Z,75.90
2017-09-26T06:14:32.145Z,76.00
2017-09-26T06:16:58.429Z,75.90
2017-09-26T06:19:24.714Z,75.40
2017-09-26T06:21:50.983Z,75.60
2017-09-26T06:24:17.362Z,75.80
2017-09-26T06:26:43.667Z,75.80
2017-09-26T06:29:11.010Z,75.90
2017-09-26T06:31:37.313Z,75.90
2017-09-26T06:34:03.520Z,75.30
2017-09-26T06:36:29.855Z,75.60
2017-09-26T06:38:56.148Z,76.00
2017-09-26T06:41:23.180Z,75.70
2017-09-26T06:43:50.233Z,75.40
2017-09-26T06:46:17.231Z,75.80
2017-09-26T06:48:43.447Z,75.80
2017-09-26T06:51:10.061Z,75.40
2017-09-26T06:53:36.297Z,75.10
2017-09-26T06:56:02.558Z,75.90
2017-09-26T06:58:28.844Z,75.40
2017-09-26T07:00:55.762Z,75.50
2017-09-26T07:03:22.002Z,75.50
2017-09-26T07:05:49.389Z,76.00
2017-09-26T07:08:15.658Z,75.90
2017-09-26T07:10:41.890Z,76.20
2017-09-26T07:13:08.187Z,76.50
2017-09-26T07:15:34.449Z,76.30
2017-09-26T07:18:00.713Z,76.80
2017-09-26T07:20:28.095Z,76.50
2017-09-26T07:22:54.334Z,76.60
2017-09-26T07:25:20.618Z,76.70
2017-09-26T07:27:48.009Z,76.50
2017-09-26T07:30:14.247Z,76.50
2017-09-26T07:32:40.580Z,76.30
2017-09-26T07:35:07.203Z,76.20
2017-09-26T07:37:33.519Z,76.00
2017-09-26T07:39:59.763Z,76.10
2017-09-26T07:42:26.394Z,76.10
2017-09-26T07:44:52.657Z,75.50
2017-09-26T07:47:18.903Z,75.20
2017-09-26T07:49:45.599Z,75.30
2017-09-26T07:52:11.875Z,75.20
2017-09-26T07:54:38.902Z,75.40
2017-09-26T07:57:05.210Z,75.40
2017-09-26T07:59:31.440Z,74.70
2017-09-26T08:01:59.095Z,74.50
2017-09-26T08:04:26.868Z,74.50
2017-09-26T08:06:54.399Z,74.40
2017-09-26T08:09:22.671Z,73.70
2017-09-26T08:11:49.623Z,73.40
2017-09-26T08:14:16.609Z,73.00
2017-09-26T08:16:42.790Z,73.00
2017-09-26T08:19:09.762Z,72.10
2017-09-26T08:21:35.997Z,72.00
2017-09-26T08:24:02.223Z,71.70
2017-09-26T08:26:28.503Z,71.50
2017-09-26T08:28:54.749Z,71.10
2017-09-26T08:31:21.756Z,70.20
2017-09-26T08:33:48.011Z,70.20
2017-09-26T08:36:14.282Z,70.70
2017-09-26T08:38:40.530Z,69.70
2017-09-26T08:41:06.826Z,68.00
2017-09-26T08:43:33.052Z,68.60
2017-09-26T08:45:59.995Z,68.70
2017-09-26T08:48:27.066Z,68.40
2017-09-26T08:50:53.298Z,68.30
2017-09-26T08:53:19.534Z,68.10
2017-09-26T08:55:45.759Z,66.30
2017-09-26T08:58:12.101Z,66.90
2017-09-26T09:00:38.385Z,65.80
2017-09-26T09:03:05.401Z,65.90
2017-09-26T09:05:31.674Z,65.80
2017-09-26T09:07:57.943Z,66.00
2017-09-26T09:10:24.692Z,64.30
2017-09-26T09:12:51.012Z,65.60
2017-09-26T09:15:17.246Z,63.80
2017-09-26T09:17:43.560Z,63.90
2017-09-26T09:20:09.860Z,65.50
2017-09-26T09:22:36.178Z,64.90
2017-09-26T09:25:03.195Z,64.20
2017-09-26T09:27:29.542Z,64.20
2017-09-26T09:29:55.814Z,64.00
2017-09-26T09:32:22.149Z,61.60
2017-09-26T09:34:48.445Z,62.50
2017-09-26T09:37:15.477Z,63.20
2017-09-26T09:39:41.797Z,62.30
2017-09-26T09:42:08.107Z,61.90
2017-09-26T09:44:34.402Z,61.00
2017-09-26T09:47:00.752Z,61.10
2017-09-26T09:49:27.063Z,58.40
2017-09-26T09:51:53.421Z,61.30
2017-09-26T09:54:20.154Z,59.40
2017-09-26T09:56:46.478Z,58.60
2017-09-26T09:59:12.789Z,58.40
2017-09-26T10:01:39.117Z,58.70
2017-09-26T10:04:06.213Z,58.90
2017-09-26T10:06:32.497Z,58.90
2017-09-26T10:08:59.831Z,57.20
2017-09-26T10:11:26.877Z,57.30
2017-09-26T10:13:53.890Z,56.70
2017-09-26T10:16:20.144Z,56.80
2017-09-26T10:18:46.532Z,56.90
2017-09-26T10:21:12.892Z,56.10
2017-09-26T10:23:39.645Z,55.80
2017-09-26T10:26:05.993Z,56.50
2017-09-26T10:28:32.312Z,55.60
2017-09-26T10:30:59.064Z,56.00
2017-09-26T10:33:26.139Z,54.90
2017-09-26T10:35:52.429Z,54.90
2017-09-26T10:38:19.116Z,54.80
2017-09-26T10:40:45.445Z,54.00
2017-09-26T10:43:11.743Z,53.40
2017-09-26T10:45:38.831Z,52.80
2017-09-26T10:48:05.138Z,52.80
2017-09-26T10:50:31.462Z,53.80
2017-09-26T10:52:58.639Z,52.60
2017-09-26T10:55:24.962Z,52.60
2017-09-26T10:57:51.240Z,54.20
2017-09-26T11:00:17.612Z,52.00
2017-09-26T11:02:43.890Z,53.00
2017-09-26T11:05:10.215Z,52.60
2017-09-26T11:07:36.506Z,53.50
2017-09-26T11:10:02.768Z,52.70
2017-09-26T11:12:29.074Z,53.30
2017-09-26T11:14:55.393Z,51.90
2017-09-26T11:17:21.654Z,51.80
2017-09-26T11:19:48.063Z,51.50
2017-09-26T11:22:14.427Z,51.60
2017-09-26T11:24:40.705Z,52.90
2017-09-26T11:27:07.669Z,51.10
2017-09-26T11:29:33.935Z,51.10
2017-09-26T11:32:00.222Z,51.70
2017-09-26T11:34:27.222Z,51.20
2017-09-26T11:36:53.609Z,51.00
2017-09-26T11:39:19.879Z,50.80
2017-09-26T11:41:46.432Z,50.90
2017-09-26T11:44:12.754Z,49.40
2017-09-26T11:46:39.778Z,49.40
2017-09-26T11:49:06.058Z,49.30
2017-09-26T11:51:33.104Z,51.00
2017-09-26T11:54:00.075Z,51.00
2017-09-26T11:56:26.337Z,50.30
2017-09-26T11:58:52.630Z,49.70
2017-09-26T12:01:19.992Z,49.80
2017-09-26T12:03:46.284Z,49.80
2017-09-26T12:06:13.005Z,49.50
2017-09-26T12:08:39.523Z,49.50
2017-09-26T12:11:05.782Z,49.00
2017-09-26T12:13:38.456Z,49.30
2017-09-26T12:16:04.797Z,50.10
2017-09-26T12:18:31.797Z,51.10
2017-09-26T12:20:58.113Z,51.10
2017-09-26T12:23:24.380Z,50.00
2017-09-26T12:25:50.710Z,50.00
2017-09-26T12:28:17.022Z,50.30
2017-09-26T12:30:43.286Z,50.30
2017-09-26T12:33:09.650Z,48.70
2017-09-26T12:35:36.014Z,50.20
2017-09-26T12:38:02.323Z,49.60
2017-09-26T12:40:28.700Z,50.00
2017-09-26T12:42:55.000Z,49.10
2017-09-26T12:45:21.242Z,48.30
2017-09-26T12:47:47.497Z,45.80
2017-09-26T12:50:14.241Z,47.70
2017-09-26T12:52:40.536Z,47.90
2017-09-26T12:55:06.816Z,47.50
2017-09-26T12:57:33.834Z,49.00
2017-09-26T13:00:00.133Z,48.90
2017-09-26T13:02:26.427Z,49.00
2017-09-26T13:04:53.479Z,48.30
2017-09-26T13:07:20.501Z,47.70
2017-09-26T13:09:46.810Z,47.60
2017-09-26T13:12:13.198Z,47.90
2017-09-26T13:14:40.383Z,48.20
2017-09-26T13:17:06.684Z,48.20
2017-09-26T13:19:32.999Z,49.00
2017-09-26T13:22:00.080Z,49.40
2017-09-26T13:24:26.433Z,49.30
2017-09-26T13:26:52.768Z,48.70
2017-09-26T13:29:19.291Z,48.70
2017-09-26T13:31:45.641Z,47.70
2017-09-26T13:34:12.240Z,47.70
2017-09-26T13:36:38.611Z,48.80
2017-09-26T13:39:04.886Z,49.40
2017-09-26T13:41:31.913Z,51.50
2017-09-26T13:43:58.968Z,51.00
2017-09-26T13:46:26.037Z,52.70
2017-09-26T13:48:52.555Z,52.70
2017-09-26T13:51:19.637Z,53.80
2017-09-26T13:53:45.951Z,53.80
2017-09-26T13:56:12.306Z,53.20
2017-09-26T13:58:38.590Z,52.00
2017-09-26T14:01:05.641Z,51.30
2017-09-26T14:03:32.669Z,48.80
2017-09-26T14:05:58.984Z,48.90
2017-09-26T14:08:25.352Z,49.00
2017-09-26T14:10:52.424Z,50.00
2017-09-26T14:13:18.876Z,49.90
2017-09-26T14:15:45.157Z,50.20
2017-09-26T14:18:12.185Z,49.00
2017-09-26T14:20:38.460Z,48.60
2017-09-26T14:23:04.914Z,49.40
2017-09-26T14:25:31.186Z,50.40
2017-09-26T14:27:57.552Z,49.60
2017-09-26T14:30:23.810Z,50.60
2017-09-26T14:32:50.448Z,49.50
2017-09-26T14:35:16.732Z,49.10
2017-09-26T14:37:43.772Z,48.30
2017-09-26T14:40:10.867Z,48.60
2017-09-26T14:42:37.195Z,48.60
2017-09-26T14:45:03.565Z,48.00
2017-09-26T14:47:29.922Z,47.70
2017-09-26T14:49:56.966Z,46.70
2017-09-26T14:52:24.036Z,48.20
2017-09-26T14:54:50.293Z,48.20
2017-09-26T14:57:16.595Z,46.70
2017-09-26T14:59:42.845Z,45.70
2017-09-26T15:02:09.082Z,47.00
2017-09-26T15:04:35.351Z,46.40
2017-09-26T15:07:01.643Z,46.50
2017-09-26T15:09:28.012Z,45.50
2017-09-26T15:11:55.038Z,46.60
2017-09-26T15:14:21.337Z,46.50
2017-09-26T15:16:47.645Z,47.40
2017-09-26T15:19:13.918Z,48.70
2017-09-26T15:21:40.641Z,48.40
2017-09-26T15:24:06.926Z,51.00
2017-09-26T15:26:33.981Z,51.20
2017-09-26T15:29:00.997Z,51.80
2017-09-26T15:31:27.277Z,51.70
2017-09-26T15:33:53.930Z,52.00
2017-09-26T15:36:20.178Z,51.70
2017-09-26T15:38:46.519Z,52.10
2017-09-26T15:41:12.920Z,52.00
2017-09-26T15:43:39.241Z,52.70
2017-09-26T15:46:05.521Z,53.70
2017-09-26T15:48:31.821Z,53.20
2017-09-26T15:50:58.086Z,54.10
2017-09-26T15:53:24.421Z,54.10
2017-09-26T15:55:50.800Z,54.70
2017-09-26T15:58:17.580Z,54.20
2017-09-26T16:00:43.912Z,54.70
2017-09-26T16:03:10.213Z,55.10
2017-09-26T16:05:36.876Z,54.90
2017-09-26T16:08:03.189Z,55.70
2017-09-26T16:10:29.531Z,56.30
2017-09-26T16:12:56.237Z,56.60
2017-09-26T16:15:22.495Z,57.30
2017-09-26T16:17:48.843Z,57.80
2017-09-26T16:20:15.455Z,58.10
2017-09-26T16:22:41.754Z,58.50
2017-09-26T16:25:08.048Z,59.40
2017-09-26T16:27:34.403Z,59.50
2017-09-26T16:30:01.456Z,60.50
2017-09-26T16:32:27.741Z,60.40
2017-09-26T16:34:54.106Z,60.10
2017-09-26T16:37:21.147Z,61.10
2017-09-26T16:39:48.236Z,61.90
2017-09-26T16:42:14.556Z,61.90
2017-09-26T16:44:40.888Z,62.20
2017-09-26T16:47:07.188Z,62.70
2017-09-26T16:49:34.583Z,63.60
2017-09-26T16:52:00.870Z,63.60
2017-09-26T16:54:27.095Z,64.00
2017-09-26T16:56:53.386Z,64.20
2017-09-26T16:59:19.717Z,64.70
2017-09-26T17:01:46.091Z,64.80
2017-09-26T17:04:12.406Z,65.00
2017-09-26T17:06:38.770Z,65.70
2017-09-26T17:09:05.960Z,65.40
2017-09-26T17:11:32.461Z,65.40
2017-09-26T17:13:58.772Z,65.50
2017-09-26T17:16:25.830Z,65.80
2017-09-26T17:18:52.972Z,66.10
2017-09-26T17:21:20.067Z,66.00
2017-09-26T17:23:46.380Z,66.00
2017-09-26T17:26:12.754Z,66.10
2017-09-26T17:28:39.005Z,66.20
2017-09-26T17:31:05.332Z,66.40
2017-09-26T17:33:31.614Z,66.50
2017-09-26T17:35:57.920Z,67.40
2017-09-26T17:38:24.253Z,66.80
2017-09-26T17:40:50.521Z,66.90
2017-09-26T17:43:16.867Z,67.40
2017-09-26T17:45:43.133Z,67.00
2017-09-26T17:48:10.188Z,67.50
2017-09-26T17:50:37.230Z,67.50
2017-09-26T17:53:03.545Z,67.50
2017-09-26T17:55:29.913Z,67.50
2017-09-26T17:57:56.269Z,66.90
2017-09-26T18:00:22.638Z,67.80
2017-09-26T18:02:49.849Z,68.10
2017-09-26T18:05:16.169Z,67.90
2017-09-26T18:07:42.501Z,68.70
2017-09-26T18:10:08.823Z,68.60
2017-09-26T18:12:35.148Z,68.50
2017-09-26T18:15:01.476Z,69.10
2017-09-26T18:17:27.786Z,69.10
2017-09-26T18:19:54.794Z,68.90
2017-09-26T18:22:21.092Z,68.80
2017-09-26T18:24:47.480Z,69.10
2017-09-26T18:27:14.477Z,69.80
2017-09-26T18:29:40.714Z,68.90
2017-09-26T18:32:07.380Z,69.00
2017-09-26T18:34:33.751Z,69.60
2017-09-26T18:37:00.818Z,69.60
2017-09-26T18:39:28.518Z,69.40
2017-09-26T18:41:54.789Z,69.70
2017-09-26T18:44:21.783Z,70.10
2017-09-26T18:46:48.451Z,70.10
2017-09-26T18:49:14.765Z,69.80
2017-09-26T18:51:41.014Z,71.00
2017-09-26T18:54:07.699Z,70.30
2017-09-26T18:56:33.978Z,71.30
2017-09-26T18:59:00.296Z,70.00
2017-09-26T19:01:26.577Z,70.10
2017-09-26T19:03:52.889Z,70.30
2017-09-26T19:06:19.941Z,70.60
2017-09-26T19:08:46.643Z,70.50
2017-09-26T19:11:12.938Z,70.70
2017-09-26T19:13:39.320Z,70.70
2017-09-26T19:16:05.607Z,70.70
2017-09-26T19:18:31.920Z,69.80
2017-09-26T19:20:58.233Z,70.90
2017-09-26T19:23:25.312Z,70.90
2017-09-26T19:25:51.673Z,70.80
2017-09-26T19:28:17.974Z,71.00
2017-09-26T19:30:44.282Z,71.20
2017-09-26T19:33:10.597Z,71.50
2017-09-26T19:35:37.618Z,70.80
2017-09-26T19:38:04.607Z,71.40
2017-09-26T19:40:30.937Z,71.40
2017-09-26T19:42:57.255Z,71.00
2017-09-26T19:45:24.632Z,71.60
2017-09-26T19:47:50.943Z,71.60
2017-09-26T19:50:17.274Z,71.60
2017-09-26T19:52:44.298Z,71.70
2017-09-26T19:55:10.684Z,71.70
2017-09-26T19:57:36.960Z,71.90
2017-09-26T20:00:03.691Z,71.80
2017-09-26T20:02:29.926Z,72.00
2017-09-26T20:04:56.180Z,72.10
2017-09-26T20:07:23.600Z,72.10
2017-09-26T20:09:49.891Z,72.00
2017-09-26T20:12:16.194Z,72.40
2017-09-26T20:14:43.301Z,72.40
2017-09-26T20:17:09.657Z,72.30
2017-09-26T20:19:36.811Z,72.10
2017-09-26T20:22:04.241Z,72.20
2017-09-26T20:24:30.756Z,71.90
2017-09-26T20:26:57.144Z,71.70
2017-09-26T20:29:24.744Z,71.80
2017-09-26T20:31:51.069Z,71.80
2017-09-26T20:34:17.324Z,71.90
2017-09-26T20:36:44.090Z,71.90
2017-09-26T20:39:10.371Z,71.90
2017-09-26T20:41:36.720Z,71.70
2017-09-26T20:44:03.547Z,71.70
2017-09-26T20:46:29.870Z,72.10
2017-09-26T20:48:56.272Z,72.50
2017-09-26T20:51:23.811Z,72.40
2017-09-26T20:53:50.139Z,72.30
2017-09-26T20:56:16.486Z,72.50
2017-09-26T20:58:43.544Z,72.10
2017-09-26T21:01:10.592Z,73.00
2017-09-26T21:03:37.588Z,72.70
2017-09-26T21:06:03.921Z,72.70
2017-09-26T21:08:30.217Z,72.80
2017-09-26T21:10:56.506Z,72.60
2017-09-26T21:13:23.619Z,73.40
2017-09-26T21:15:49.948Z,73.50
2017-09-26T21:18:16.285Z,73.20
2017-09-26T21:20:42.678Z,73.30
2017-09-26T21:23:08.997Z,72.70
2017-09-26T21:25:36.085Z,72.80
2017-09-26T21:28:02.417Z,72.70
2017-09-26T21:30:28.724Z,73.20
2017-09-26T21:32:55.065Z,72.90
2017-09-26T21:35:21.745Z,73.10
2017-09-26T21:37:48.022Z,72.60
2017-09-26T21:40:14.306Z,72.60
2017-09-26T21:42:40.906Z,72.60
2017-09-26T21:45:07.221Z,72.70
2017-09-26T21:47:33.521Z,72.70
2017-09-26T21:50:00.597Z,72.70
2017-09-26T21:52:26.890Z,72.70
2017-09-26T21:54:53.158Z,72.40
2017-09-26T21:57:19.453Z,72.60
2017-09-26T21:59:45.756Z,72.50
2017-09-26T22:02:12.010Z,72.60
2017-09-26T22:04:38.684Z,72.60
2017-09-26T22:07:05.028Z,72.30
2017-09-26T22:09:31.311Z,73.00
2017-09-26T22:11:58.409Z,72.50
2017-09-26T22:14:24.701Z,72.50
2017-09-26T22:16:51.726Z,72.50
2017-09-26T22:19:18.018Z,72.50
2017-09-26T22:21:44.301Z,72.90
2017-09-26T22:24:10.597Z,72.50
2017-09-26T22:26:36.902Z,72.60
2017-09-26T22:29:03.167Z,72.20
2017-09-26T22:31:29.470Z,72.00
2017-09-26T22:33:55.782Z,72.00
2017-09-26T22:36:22.064Z,72.00
2017-09-26T22:38:48.368Z,71.60
2017-09-26T22:41:15.138Z,72.70
2017-09-26T22:43:41.469Z,72.70
2017-09-26T22:46:07.772Z,72.50
2017-09-26T22:48:34.127Z,72.70
2017-09-26T22:51:00.406Z,72.50
2017-09-26T22:53:26.703Z,73.40
2017-09-26T22:55:53.785Z,73.10
2017-09-26T22:58:20.057Z,73.90
2017-09-26T23:00:46.369Z,73.10
2017-09-26T23:03:12.731Z,73.00
2017-09-26T23:05:39.078Z,73.30
2017-09-26T23:08:06.176Z,73.10
2017-09-26T23:10:32.549Z,73.10
2017-09-26T23:12:58.853Z,73.00
2017-09-26T23:15:25.158Z,72.90
2017-09-26T23:17:51.839Z,72.70
2017-09-26T23:20:18.152Z,73.00
2017-09-26T23:22:44.426Z,73.10
2017-09-26T23:25:11.469Z,73.10
2017-09-26T23:27:38.546Z,74.40
2017-09-26T23:30:04.808Z,73.40
2017-09-26T23:32:31.520Z,73.30
2017-09-26T23:34:57.775Z,72.90
2017-09-26T23:37:24.059Z,72.90
2017-09-26T23:39:51.436Z,72.60
2017-09-26T23:42:17.709Z,72.60
2017-09-26T23:44:44.076Z,72.70
2017-09-26T23:47:10.421Z,72.20
2017-09-26T23:49:36.714Z,72.70
2017-09-26T23:52:03.065Z,72.90
2017-09-26T23:54:30.120Z,72.70
2017-09-26T23:56:57.187Z,72.90
